sensor_id;sensor_type;location;lat;lon;timestamp;P1;durP1;ratioP1;P2;durP2;ratioP2
61025;SDS011;46911;32.650;-16.902;2024-01-30T00:01:31;45.38;;;6.68;;
61025;SDS011;46911;32.650;-16.902;2024-01-30T00:03:31;33.50;;;5.88;;
61025;SDS011;46911;32.650;-16.902;2024-01-30T00:05:32;49.17;;;6.68;;
61025;SDS011;46911;32.650;-16.902;2024-01-30T00:07:33;43.90;;;5.90;;
61025;SDS011;46911;32.650;-16.902;2024-01-30T00:09:34;56.92;;;6.95;;
61025;SDS011;46911;32.650;-16.902;2024-01-30T00:11:37;58.17;;;6.70;;
61025;SDS011;46911;32.650;-16.902;2024-01-30T00:13:43;43.45;;;7.50;;
61025;SDS011;46911;32.650;-16.902;2024-01-30T00:15:44;45.35;;;8.25;;
61025;SDS011;46911;32.650;-16.902;2024-01-30T00:17:45;46.83;;;5.97;;
61025;SDS011;46911;32.650;-16.902;2024-01-30T00:19:48;49.47;;;5.70;;
61025;SDS011;46911;32.650;-16.902;2024-01-30T00:21:51;53.53;;;6.70;;
61025;SDS011;46911;32.650;-16.902;2024-01-30T00:23:52;45.80;;;6.22;;
61025;SDS011;46911;32.650;-16.902;2024-01-30T00:25:58;52.97;;;6.65;;
61025;SDS011;46911;32.650;-16.902;2024-01-30T00:28:01;64.70;;;8.68;;
61025;SDS011;46911;32.650;-16.902;2024-01-30T00:30:02;60.03;;;7.57;;
61025;SDS011;46911;32.650;-16.902;2024-01-30T00:32:09;53.08;;;7.13;;
61025;SDS011;46911;32.650;-16.902;2024-01-30T00:34:13;41.17;;;6.13;;
61025;SDS011;46911;32.650;-16.902;2024-01-30T00:36:14;47.45;;;7.22;;
61025;SDS011;46911;32.650;-16.902;2024-01-30T00:38:18;47.15;;;5.95;;
61025;SDS011;46911;32.650;-16.902;2024-01-30T00:40:18;44.63;;;5.95;;
61025;SDS011;46911;32.650;-16.902;2024-01-30T00:42:20;42.08;;;7.55;;
61025;SDS011;46911;32.650;-16.902;2024-01-30T00:44:24;47.85;;;6.28;;
61025;SDS011;46911;32.650;-16.902;2024-01-30T00:46:31;49.03;;;6.50;;
61025;SDS011;46911;32.650;-16.902;2024-01-30T00:48:32;49.40;;;7.45;;
61025;SDS011;46911;32.650;-16.902;2024-01-30T00:50:39;51.72;;;7.85;;
61025;SDS011;46911;32.650;-16.902;2024-01-30T00:52:43;40.20;;;5.93;;
61025;SDS011;46911;32.650;-16.902;2024-01-30T00:54:46;43.20;;;6.10;;
61025;SDS011;46911;32.650;-16.902;2024-01-30T00:56:47;51.80;;;7.90;;
61025;SDS011;46911;32.650;-16.902;2024-01-30T00:58:54;43.88;;;6.70;;
61025;SDS011;46911;32.650;-16.902;2024-01-30T01:01:00;46.38;;;6.18;;
61025;SDS011;46911;32.650;-16.902;2024-01-30T01:03:01;51.35;;;7.22;;
61025;SDS011;46911;32.650;-16.902;2024-01-30T01:05:07;37.47;;;6.38;;
61025;SDS011;46911;32.650;-16.902;2024-01-30T01:07:14;44.15;;;6.10;;
61025;SDS011;46911;32.650;-16.902;2024-01-30T01:09:20;42.30;;;6.07;;
61025;SDS011;46911;32.650;-16.902;2024-01-30T01:11:21;39.78;;;6.57;;
61025;SDS011;46911;32.650;-16.902;2024-01-30T01:13:22;51.13;;;6.53;;
61025;SDS011;46911;32.650;-16.902;2024-01-30T01:15:28;44.65;;;7.10;;
61025;SDS011;46911;32.650;-16.902;2024-01-30T01:17:31;42.58;;;7.00;;
61025;SDS011;46911;32.650;-16.902;2024-01-30T01:19:32;43.15;;;6.45;;
61025;SDS011;46911;32.650;-16.902;2024-01-30T01:21:33;56.22;;;6.65;;
61025;SDS011;46911;32.650;-16.902;2024-01-30T01:23:34;47.53;;;7.53;;
61025;SDS011;46911;32.650;-16.902;2024-01-30T01:25:35;54.20;;;8.27;;
61025;SDS011;46911;32.650;-16.902;2024-01-30T01:27:36;44.03;;;5.88;;
61025;SDS011;46911;32.650;-16.902;2024-01-30T01:29:41;48.15;;;6.05;;
61025;SDS011;46911;32.650;-16.902;2024-01-30T01:31:44;44.70;;;6.28;;
61025;SDS011;46911;32.650;-16.902;2024-01-30T01:33:46;51.55;;;5.93;;
61025;SDS011;46911;32.650;-16.902;2024-01-30T01:35:49;43.47;;;6.63;;
61025;SDS011;46911;32.650;-16.902;2024-01-30T01:37:57;55.47;;;6.82;;
61025;SDS011;46911;32.650;-16.902;2024-01-30T01:40:00;35.47;;;5.82;;
61025;SDS011;46911;32.650;-16.902;2024-01-30T01:42:06;49.45;;;6.57;;
61025;SDS011;46911;32.650;-16.902;2024-01-30T01:44:07;59.35;;;7.45;;
61025;SDS011;46911;32.650;-16.902;2024-01-30T01:46:11;48.95;;;5.97;;
61025;SDS011;46911;32.650;-16.902;2024-01-30T01:48:18;47.17;;;6.63;;
61025;SDS011;46911;32.650;-16.902;2024-01-30T01:50:22;39.47;;;6.25;;
61025;SDS011;46911;32.650;-16.902;2024-01-30T01:52:26;52.08;;;6.97;;
61025;SDS011;46911;32.650;-16.902;2024-01-30T01:54:30;43.85;;;5.63;;
61025;SDS011;46911;32.650;-16.902;2024-01-30T01:56:34;51.45;;;6.43;;
61025;SDS011;46911;32.650;-16.902;2024-01-30T01:58:36;45.90;;;5.68;;
61025;SDS011;46911;32.650;-16.902;2024-01-30T02:00:40;47.17;;;7.50;;
61025;SDS011;46911;32.650;-16.902;2024-01-30T02:02:46;37.95;;;6.38;;
61025;SDS011;46911;32.650;-16.902;2024-01-30T02:04:54;38.85;;;6.15;;
61025;SDS011;46911;32.650;-16.902;2024-01-30T02:06:55;39.42;;;5.25;;
61025;SDS011;46911;32.650;-16.902;2024-01-30T02:08:56;37.35;;;5.78;;
61025;SDS011;46911;32.650;-16.902;2024-01-30T02:11:00;45.97;;;5.47;;
61025;SDS011;46911;32.650;-16.902;2024-01-30T02:13:04;45.75;;;5.95;;
61025;SDS011;46911;32.650;-16.902;2024-01-30T02:15:08;41.72;;;5.03;;
61025;SDS011;46911;32.650;-16.902;2024-01-30T02:17:16;37.88;;;5.03;;
61025;SDS011;46911;32.650;-16.902;2024-01-30T02:19:17;31.23;;;6.05;;
61025;SDS011;46911;32.650;-16.902;2024-01-30T02:21:21;33.33;;;5.55;;
61025;SDS011;46911;32.650;-16.902;2024-01-30T02:23:24;47.72;;;5.50;;
61025;SDS011;46911;32.650;-16.902;2024-01-30T02:25:30;34.13;;;5.97;;
61025;SDS011;46911;32.650;-16.902;2024-01-30T02:27:35;41.75;;;5.97;;
61025;SDS011;46911;32.650;-16.902;2024-01-30T02:29:36;34.92;;;5.22;;
61025;SDS011;46911;32.650;-16.902;2024-01-30T02:31:40;25.23;;;3.58;;
61025;SDS011;46911;32.650;-16.902;2024-01-30T02:33:41;39.13;;;6.20;;
61025;SDS011;46911;32.650;-16.902;2024-01-30T02:35:41;34.95;;;5.78;;
61025;SDS011;46911;32.650;-16.902;2024-01-30T02:37:42;41.08;;;5.40;;
61025;SDS011;46911;32.650;-16.902;2024-01-30T02:39:43;52.80;;;5.60;;
61025;SDS011;46911;32.650;-16.902;2024-01-30T02:41:46;31.30;;;5.70;;
61025;SDS011;46911;32.650;-16.902;2024-01-30T02:43:47;37.92;;;5.28;;
61025;SDS011;46911;32.650;-16.902;2024-01-30T02:45:51;45.13;;;5.38;;
61025;SDS011;46911;32.650;-16.902;2024-01-30T02:47:52;47.38;;;5.13;;
61025;SDS011;46911;32.650;-16.902;2024-01-30T02:49:55;30.25;;;6.45;;
61025;SDS011;46911;32.650;-16.902;2024-01-30T02:51:56;40.60;;;5.65;;
61025;SDS011;46911;32.650;-16.902;2024-01-30T02:53:57;34.30;;;4.65;;
61025;SDS011;46911;32.650;-16.902;2024-01-30T02:55:58;45.70;;;5.93;;
61025;SDS011;46911;32.650;-16.902;2024-01-30T02:57:59;34.03;;;5.25;;
61025;SDS011;46911;32.650;-16.902;2024-01-30T03:00:05;31.77;;;4.55;;
61025;SDS011;46911;32.650;-16.902;2024-01-30T03:02:13;38.47;;;5.18;;
61025;SDS011;46911;32.650;-16.902;2024-01-30T03:04:14;41.40;;;5.65;;
61025;SDS011;46911;32.650;-16.902;2024-01-30T03:06:15;42.35;;;5.18;;
61025;SDS011;46911;32.650;-16.902;2024-01-30T03:08:17;35.97;;;6.15;;
61025;SDS011;46911;32.650;-16.902;2024-01-30T03:10:18;35.30;;;4.53;;
61025;SDS011;46911;32.650;-16.902;2024-01-30T03:12:19;43.38;;;6.75;;
61025;SDS011;46911;32.650;-16.902;2024-01-30T03:14:23;45.00;;;7.10;;
61025;SDS011;46911;32.650;-16.902;2024-01-30T03:16:23;43.50;;;6.22;;
61025;SDS011;46911;32.650;-16.902;2024-01-30T03:18:27;37.58;;;5.38;;
61025;SDS011;46911;32.650;-16.902;2024-01-30T03:20:30;44.00;;;5.75;;
61025;SDS011;46911;32.650;-16.902;2024-01-30T03:22:36;45.25;;;7.32;;
61025;SDS011;46911;32.650;-16.902;2024-01-30T03:24:37;51.83;;;6.75;;
61025;SDS011;46911;32.650;-16.902;2024-01-30T03:26:40;44.45;;;6.38;;
61025;SDS011;46911;32.650;-16.902;2024-01-30T03:28:41;34.22;;;5.32;;
61025;SDS011;46911;32.650;-16.902;2024-01-30T03:30:44;55.78;;;7.88;;
61025;SDS011;46911;32.650;-16.902;2024-01-30T03:32:49;42.08;;;6.40;;
61025;SDS011;46911;32.650;-16.902;2024-01-30T03:34:50;42.30;;;6.25;;
61025;SDS011;46911;32.650;-16.902;2024-01-30T03:36:51;44.97;;;5.80;;
61025;SDS011;46911;32.650;-16.902;2024-01-30T03:38:52;46.60;;;8.10;;
61025;SDS011;46911;32.650;-16.902;2024-01-30T03:40:56;47.20;;;6.75;;
61025;SDS011;46911;32.650;-16.902;2024-01-30T03:42:57;54.83;;;5.55;;
61025;SDS011;46911;32.650;-16.902;2024-01-30T03:44:58;42.67;;;5.97;;
61025;SDS011;46911;32.650;-16.902;2024-01-30T03:46:59;43.92;;;7.18;;
61025;SDS011;46911;32.650;-16.902;2024-01-30T03:49:09;40.95;;;5.57;;
61025;SDS011;46911;32.650;-16.902;2024-01-30T03:51:10;43.53;;;6.20;;
61025;SDS011;46911;32.650;-16.902;2024-01-30T03:53:17;36.92;;;6.53;;
61025;SDS011;46911;32.650;-16.902;2024-01-30T03:55:18;50.08;;;5.90;;
61025;SDS011;46911;32.650;-16.902;2024-01-30T03:57:21;39.35;;;7.03;;
61025;SDS011;46911;32.650;-16.902;2024-01-30T03:59:26;54.08;;;6.72;;
61025;SDS011;46911;32.650;-16.902;2024-01-30T04:01:31;47.92;;;6.25;;
61025;SDS011;46911;32.650;-16.902;2024-01-30T04:03:32;52.28;;;6.05;;
61025;SDS011;46911;32.650;-16.902;2024-01-30T04:05:35;57.45;;;7.05;;
61025;SDS011;46911;32.650;-16.902;2024-01-30T04:07:38;50.05;;;6.43;;
61025;SDS011;46911;32.650;-16.902;2024-01-30T04:09:42;44.75;;;8.25;;
61025;SDS011;46911;32.650;-16.902;2024-01-30T04:11:43;59.00;;;6.18;;
61025;SDS011;46911;32.650;-16.902;2024-01-30T04:13:44;51.13;;;7.72;;
61025;SDS011;46911;32.650;-16.902;2024-01-30T04:15:48;38.72;;;7.00;;
61025;SDS011;46911;32.650;-16.902;2024-01-30T04:17:52;48.97;;;6.60;;
61025;SDS011;46911;32.650;-16.902;2024-01-30T04:19:57;38.17;;;5.88;;
61025;SDS011;46911;32.650;-16.902;2024-01-30T04:21:58;46.33;;;6.50;;
61025;SDS011;46911;32.650;-16.902;2024-01-30T04:23:59;47.63;;;7.72;;
61025;SDS011;46911;32.650;-16.902;2024-01-30T04:26:02;49.83;;;6.22;;
61025;SDS011;46911;32.650;-16.902;2024-01-30T04:28:03;40.53;;;5.35;;
61025;SDS011;46911;32.650;-16.902;2024-01-30T04:30:04;41.65;;;6.15;;
61025;SDS011;46911;32.650;-16.902;2024-01-30T04:32:09;52.88;;;6.63;;
61025;SDS011;46911;32.650;-16.902;2024-01-30T04:34:12;52.17;;;6.63;;
61025;SDS011;46911;32.650;-16.902;2024-01-30T04:36:14;47.72;;;6.18;;
61025;SDS011;46911;32.650;-16.902;2024-01-30T04:38:19;44.10;;;6.57;;
61025;SDS011;46911;32.650;-16.902;2024-01-30T04:40:27;41.80;;;6.10;;
61025;SDS011;46911;32.650;-16.902;2024-01-30T04:42:30;46.85;;;6.88;;
61025;SDS011;46911;32.650;-16.902;2024-01-30T04:44:31;52.72;;;6.57;;
61025;SDS011;46911;32.650;-16.902;2024-01-30T04:46:32;52.67;;;6.55;;
61025;SDS011;46911;32.650;-16.902;2024-01-30T04:48:34;29.63;;;6.18;;
61025;SDS011;46911;32.650;-16.902;2024-01-30T04:50:38;33.22;;;5.63;;
61025;SDS011;46911;32.650;-16.902;2024-01-30T04:52:39;39.60;;;5.63;;
61025;SDS011;46911;32.650;-16.902;2024-01-30T04:54:39;56.67;;;6.10;;
61025;SDS011;46911;32.650;-16.902;2024-01-30T04:56:40;44.88;;;5.93;;
61025;SDS011;46911;32.650;-16.902;2024-01-30T04:58:43;54.38;;;6.63;;
61025;SDS011;46911;32.650;-16.902;2024-01-30T05:00:44;43.88;;;7.82;;
61025;SDS011;46911;32.650;-16.902;2024-01-30T05:02:46;43.05;;;7.25;;
61025;SDS011;46911;32.650;-16.902;2024-01-30T05:04:52;49.97;;;7.15;;
61025;SDS011;46911;32.650;-16.902;2024-01-30T05:06:58;56.60;;;7.68;;
61025;SDS011;46911;32.650;-16.902;2024-01-30T05:09:01;43.88;;;6.10;;
61025;SDS011;46911;32.650;-16.902;2024-01-30T05:11:07;40.20;;;7.18;;
61025;SDS011;46911;32.650;-16.902;2024-01-30T05:13:13;65.65;;;7.93;;
61025;SDS011;46911;32.650;-16.902;2024-01-30T05:15:14;55.22;;;8.05;;
61025;SDS011;46911;32.650;-16.902;2024-01-30T05:17:15;39.40;;;6.03;;
61025;SDS011;46911;32.650;-16.902;2024-01-30T05:19:16;54.38;;;10.30;;
61025;SDS011;46911;32.650;-16.902;2024-01-30T05:21:17;57.60;;;7.05;;
61025;SDS011;46911;32.650;-16.902;2024-01-30T05:23:26;60.97;;;7.18;;
61025;SDS011;46911;32.650;-16.902;2024-01-30T05:25:29;52.88;;;8.32;;
61025;SDS011;46911;32.650;-16.902;2024-01-30T05:27:30;56.22;;;7.30;;
61025;SDS011;46911;32.650;-16.902;2024-01-30T05:29:31;47.10;;;8.23;;
61025;SDS011;46911;32.650;-16.902;2024-01-30T05:31:34;60.90;;;7.93;;
61025;SDS011;46911;32.650;-16.902;2024-01-30T05:33:35;59.17;;;7.53;;
61025;SDS011;46911;32.650;-16.902;2024-01-30T05:35:36;73.13;;;8.73;;
61025;SDS011;46911;32.650;-16.902;2024-01-30T05:37:42;49.03;;;7.53;;
61025;SDS011;46911;32.650;-16.902;2024-01-30T05:39:42;44.80;;;7.20;;
61025;SDS011;46911;32.650;-16.902;2024-01-30T05:41:46;55.30;;;8.43;;
61025;SDS011;46911;32.650;-16.902;2024-01-30T05:43:49;49.10;;;6.97;;
61025;SDS011;46911;32.650;-16.902;2024-01-30T05:45:53;42.75;;;7.50;;
61025;SDS011;46911;32.650;-16.902;2024-01-30T05:47:53;66.15;;;8.98;;
61025;SDS011;46911;32.650;-16.902;2024-01-30T05:49:57;61.75;;;7.45;;
61025;SDS011;46911;32.650;-16.902;2024-01-30T05:51:58;67.70;;;7.10;;
61025;SDS011;46911;32.650;-16.902;2024-01-30T05:54:01;49.90;;;8.13;;
61025;SDS011;46911;32.650;-16.902;2024-01-30T05:56:09;38.20;;;7.72;;
61025;SDS011;46911;32.650;-16.902;2024-01-30T05:58:14;56.15;;;8.00;;
61025;SDS011;46911;32.650;-16.902;2024-01-30T06:00:20;41.20;;;6.15;;
61025;SDS011;46911;32.650;-16.902;2024-01-30T06:02:23;48.40;;;7.55;;
61025;SDS011;46911;32.650;-16.902;2024-01-30T06:04:26;60.70;;;7.78;;
61025;SDS011;46911;32.650;-16.902;2024-01-30T06:06:27;48.17;;;6.60;;
61025;SDS011;46911;32.650;-16.902;2024-01-30T06:08:28;55.80;;;7.40;;
61025;SDS011;46911;32.650;-16.902;2024-01-30T06:10:29;64.25;;;8.15;;
61025;SDS011;46911;32.650;-16.902;2024-01-30T06:12:30;46.47;;;6.25;;
61025;SDS011;46911;32.650;-16.902;2024-01-30T06:14:36;58.40;;;7.22;;
61025;SDS011;46911;32.650;-16.902;2024-01-30T06:16:39;44.85;;;7.18;;
61025;SDS011;46911;32.650;-16.902;2024-01-30T06:18:45;77.28;;;8.52;;
61025;SDS011;46911;32.650;-16.902;2024-01-30T06:20:51;54.17;;;7.40;;
61025;SDS011;46911;32.650;-16.902;2024-01-30T06:22:57;76.07;;;9.35;;
61025;SDS011;46911;32.650;-16.902;2024-01-30T06:24:58;44.75;;;7.70;;
61025;SDS011;46911;32.650;-16.902;2024-01-30T06:26:59;44.83;;;7.30;;
61025;SDS011;46911;32.650;-16.902;2024-01-30T06:29:00;63.30;;;9.50;;
61025;SDS011;46911;32.650;-16.902;2024-01-30T06:31:03;43.25;;;6.80;;
61025;SDS011;46911;32.650;-16.902;2024-01-30T06:33:11;67.72;;;8.05;;
61025;SDS011;46911;32.650;-16.902;2024-01-30T06:35:13;60.85;;;8.68;;
61025;SDS011;46911;32.650;-16.902;2024-01-30T06:37:17;63.60;;;7.47;;
61025;SDS011;46911;32.650;-16.902;2024-01-30T06:39:18;68.80;;;9.02;;
61025;SDS011;46911;32.650;-16.902;2024-01-30T06:41:21;63.10;;;7.28;;
61025;SDS011;46911;32.650;-16.902;2024-01-30T06:43:24;57.53;;;7.57;;
61025;SDS011;46911;32.650;-16.902;2024-01-30T06:45:27;61.53;;;7.97;;
61025;SDS011;46911;32.650;-16.902;2024-01-30T06:47:34;66.28;;;9.57;;
61025;SDS011;46911;32.650;-16.902;2024-01-30T06:49:35;62.38;;;8.57;;
61025;SDS011;46911;32.650;-16.902;2024-01-30T06:51:41;72.72;;;9.82;;
61025;SDS011;46911;32.650;-16.902;2024-01-30T06:53:41;76.72;;;9.18;;
61025;SDS011;46911;32.650;-16.902;2024-01-30T06:55:45;61.03;;;7.53;;
61025;SDS011;46911;32.650;-16.902;2024-01-30T06:57:46;65.13;;;9.15;;
61025;SDS011;46911;32.650;-16.902;2024-01-30T06:59:49;65.70;;;8.93;;
61025;SDS011;46911;32.650;-16.902;2024-01-30T07:01:52;71.45;;;8.98;;
61025;SDS011;46911;32.650;-16.902;2024-01-30T07:03:56;59.28;;;8.13;;
61025;SDS011;46911;32.650;-16.902;2024-01-30T07:06:02;67.95;;;8.43;;
61025;SDS011;46911;32.650;-16.902;2024-01-30T07:08:11;68.22;;;8.00;;
61025;SDS011;46911;32.650;-16.902;2024-01-30T07:10:17;73.93;;;9.38;;
61025;SDS011;46911;32.650;-16.902;2024-01-30T07:12:21;75.40;;;11.32;;
61025;SDS011;46911;32.650;-16.902;2024-01-30T07:14:25;64.18;;;8.55;;
61025;SDS011;46911;32.650;-16.902;2024-01-30T07:16:28;72.63;;;10.05;;
61025;SDS011;46911;32.650;-16.902;2024-01-30T07:18:31;67.43;;;9.07;;
61025;SDS011;46911;32.650;-16.902;2024-01-30T07:20:37;83.72;;;12.65;;
61025;SDS011;46911;32.650;-16.902;2024-01-30T07:22:46;63.50;;;11.85;;
61025;SDS011;46911;32.650;-16.902;2024-01-30T07:24:48;55.53;;;8.95;;
61025;SDS011;46911;32.650;-16.902;2024-01-30T07:26:52;68.95;;;9.10;;
61025;SDS011;46911;32.650;-16.902;2024-01-30T07:28:55;72.20;;;9.98;;
61025;SDS011;46911;32.650;-16.902;2024-01-30T07:31:04;79.72;;;9.43;;
61025;SDS011;46911;32.650;-16.902;2024-01-30T07:33:08;58.80;;;8.90;;
61025;SDS011;46911;32.650;-16.902;2024-01-30T07:35:12;84.55;;;9.63;;
61025;SDS011;46911;32.650;-16.902;2024-01-30T07:37:13;76.15;;;10.23;;
61025;SDS011;46911;32.650;-16.902;2024-01-30T07:39:16;68.88;;;9.30;;
61025;SDS011;46911;32.650;-16.902;2024-01-30T07:41:20;55.92;;;10.13;;
61025;SDS011;46911;32.650;-16.902;2024-01-30T07:43:21;72.97;;;9.95;;
61025;SDS011;46911;32.650;-16.902;2024-01-30T07:45:23;67.18;;;9.13;;
61025;SDS011;46911;32.650;-16.902;2024-01-30T07:47:30;69.78;;;10.15;;
61025;SDS011;46911;32.650;-16.902;2024-01-30T07:49:33;68.28;;;8.57;;
61025;SDS011;46911;32.650;-16.902;2024-01-30T07:51:36;61.85;;;7.88;;
61025;SDS011;46911;32.650;-16.902;2024-01-30T07:53:37;70.57;;;10.65;;
61025;SDS011;46911;32.650;-16.902;2024-01-30T07:55:41;73.88;;;10.07;;
61025;SDS011;46911;32.650;-16.902;2024-01-30T07:57:49;60.30;;;8.35;;
61025;SDS011;46911;32.650;-16.902;2024-01-30T07:59:52;66.20;;;9.30;;
61025;SDS011;46911;32.650;-16.902;2024-01-30T08:01:53;76.03;;;8.38;;
61025;SDS011;46911;32.650;-16.902;2024-01-30T08:03:57;65.38;;;8.68;;
61025;SDS011;46911;32.650;-16.902;2024-01-30T08:05:58;70.20;;;12.07;;
61025;SDS011;46911;32.650;-16.902;2024-01-30T08:07:58;64.22;;;10.05;;
61025;SDS011;46911;32.650;-16.902;2024-01-30T08:09:59;66.40;;;10.15;;
61025;SDS011;46911;32.650;-16.902;2024-01-30T08:12:00;69.07;;;9.15;;
61025;SDS011;46911;32.650;-16.902;2024-01-30T08:14:02;58.42;;;9.77;;
61025;SDS011;46911;32.650;-16.902;2024-01-30T08:16:05;58.58;;;10.18;;
61025;SDS011;46911;32.650;-16.902;2024-01-30T08:18:08;70.80;;;9.65;;
61025;SDS011;46911;32.650;-16.902;2024-01-30T08:20:14;69.68;;;10.05;;
61025;SDS011;46911;32.650;-16.902;2024-01-30T08:22:16;64.78;;;9.43;;
61025;SDS011;46911;32.650;-16.902;2024-01-30T08:24:17;62.22;;;8.70;;
61025;SDS011;46911;32.650;-16.902;2024-01-30T08:26:21;73.68;;;10.48;;
61025;SDS011;46911;32.650;-16.902;2024-01-30T08:28:24;64.57;;;8.35;;
61025;SDS011;46911;32.650;-16.902;2024-01-30T08:30:26;68.68;;;9.40;;
61025;SDS011;46911;32.650;-16.902;2024-01-30T08:32:27;79.35;;;9.43;;
61025;SDS011;46911;32.650;-16.902;2024-01-30T08:34:28;60.55;;;8.27;;
61025;SDS011;46911;32.650;-16.902;2024-01-30T08:36:29;56.00;;;7.78;;
61025;SDS011;46911;32.650;-16.902;2024-01-30T08:38:30;59.58;;;8.98;;
61025;SDS011;46911;32.650;-16.902;2024-01-30T08:40:31;57.40;;;7.63;;
61025;SDS011;46911;32.650;-16.902;2024-01-30T08:42:32;47.95;;;7.88;;
61025;SDS011;46911;32.650;-16.902;2024-01-30T08:44:38;57.80;;;9.60;;
61025;SDS011;46911;32.650;-16.902;2024-01-30T08:46:41;60.20;;;8.50;;
61025;SDS011;46911;32.650;-16.902;2024-01-30T08:48:46;59.00;;;8.77;;
61025;SDS011;46911;32.650;-16.902;2024-01-30T08:50:48;59.75;;;8.50;;
61025;SDS011;46911;32.650;-16.902;2024-01-30T08:52:48;55.80;;;9.38;;
61025;SDS011;46911;32.650;-16.902;2024-01-30T08:54:54;69.38;;;8.75;;
61025;SDS011;46911;32.650;-16.902;2024-01-30T08:56:55;58.58;;;9.32;;
61025;SDS011;46911;32.650;-16.902;2024-01-30T08:58:57;50.53;;;7.43;;
61025;SDS011;46911;32.650;-16.902;2024-01-30T09:00:58;41.30;;;6.68;;
61025;SDS011;46911;32.650;-16.902;2024-01-30T09:02:59;56.50;;;7.57;;
61025;SDS011;46911;32.650;-16.902;2024-01-30T09:05:03;54.75;;;7.78;;
61025;SDS011;46911;32.650;-16.902;2024-01-30T09:07:08;68.70;;;8.02;;
61025;SDS011;46911;32.650;-16.902;2024-01-30T09:09:12;52.22;;;8.60;;
61025;SDS011;46911;32.650;-16.902;2024-01-30T09:11:18;50.58;;;7.40;;
61025;SDS011;46911;32.650;-16.902;2024-01-30T09:13:24;66.03;;;7.40;;
61025;SDS011;46911;32.650;-16.902;2024-01-30T09:15:28;39.63;;;6.82;;
61025;SDS011;46911;32.650;-16.902;2024-01-30T09:17:31;51.70;;;8.00;;
61025;SDS011;46911;32.650;-16.902;2024-01-30T09:19:33;36.20;;;6.57;;
61025;SDS011;46911;32.650;-16.902;2024-01-30T09:21:34;60.80;;;7.55;;
61025;SDS011;46911;32.650;-16.902;2024-01-30T09:23:35;49.33;;;6.55;;
61025;SDS011;46911;32.650;-16.902;2024-01-30T09:25:36;56.75;;;9.45;;
61025;SDS011;46911;32.650;-16.902;2024-01-30T09:27:37;51.05;;;7.38;;
61025;SDS011;46911;32.650;-16.902;2024-01-30T09:29:40;48.38;;;7.65;;
61025;SDS011;46911;32.650;-16.902;2024-01-30T09:31:46;59.85;;;8.05;;
61025;SDS011;46911;32.650;-16.902;2024-01-30T09:33:50;46.90;;;6.32;;
61025;SDS011;46911;32.650;-16.902;2024-01-30T09:35:51;43.67;;;6.63;;
61025;SDS011;46911;32.650;-16.902;2024-01-30T09:37:52;49.90;;;6.43;;
61025;SDS011;46911;32.650;-16.902;2024-01-30T09:39:57;53.50;;;6.90;;
61025;SDS011;46911;32.650;-16.902;2024-01-30T09:44:38;44.55;;;6.40;;
61025;SDS011;46911;32.650;-16.902;2024-01-30T09:46:44;49.67;;;6.18;;
61025;SDS011;46911;32.650;-16.902;2024-01-30T09:48:48;47.92;;;5.93;;
61025;SDS011;46911;32.650;-16.902;2024-01-30T09:50:50;47.13;;;6.93;;
61025;SDS011;46911;32.650;-16.902;2024-01-30T09:52:52;39.10;;;5.70;;
61025;SDS011;46911;32.650;-16.902;2024-01-30T09:54:59;61.08;;;6.10;;
61025;SDS011;46911;32.650;-16.902;2024-01-30T09:57:01;42.58;;;5.78;;
61025;SDS011;46911;32.650;-16.902;2024-01-30T09:59:05;37.58;;;5.70;;
61025;SDS011;46911;32.650;-16.902;2024-01-30T10:01:08;39.17;;;5.45;;
61025;SDS011;46911;32.650;-16.902;2024-01-30T10:03:09;43.65;;;5.38;;
61025;SDS011;46911;32.650;-16.902;2024-01-30T10:05:10;41.15;;;5.90;;
61025;SDS011;46911;32.650;-16.902;2024-01-30T10:07:17;46.25;;;6.18;;
61025;SDS011;46911;32.650;-16.902;2024-01-30T10:09:18;32.28;;;4.28;;
61025;SDS011;46911;32.650;-16.902;2024-01-30T10:11:24;39.78;;;5.10;;
61025;SDS011;46911;32.650;-16.902;2024-01-30T10:13:28;32.58;;;4.28;;
61025;SDS011;46911;32.650;-16.902;2024-01-30T10:15:28;28.48;;;4.22;;
61025;SDS011;46911;32.650;-16.902;2024-01-30T10:17:32;34.92;;;5.53;;
61025;SDS011;46911;32.650;-16.902;2024-01-30T10:19:34;39.05;;;5.15;;
61025;SDS011;46911;32.650;-16.902;2024-01-30T10:21:39;34.25;;;4.28;;
61025;SDS011;46911;32.650;-16.902;2024-01-30T10:23:40;38.67;;;5.28;;
61025;SDS011;46911;32.650;-16.902;2024-01-30T10:25:43;36.33;;;6.13;;
61025;SDS011;46911;32.650;-16.902;2024-01-30T10:27:44;34.15;;;5.80;;
61025;SDS011;46911;32.650;-16.902;2024-01-30T10:29:48;40.70;;;5.78;;
61025;SDS011;46911;32.650;-16.902;2024-01-30T10:32:03;28.48;;;5.53;;
61025;SDS011;46911;32.650;-16.902;2024-01-30T10:34:10;35.15;;;6.47;;
61025;SDS011;46911;32.650;-16.902;2024-01-30T10:36:14;48.83;;;5.85;;
61025;SDS011;46911;32.650;-16.902;2024-01-30T10:38:18;41.40;;;5.82;;
61025;SDS011;46911;32.650;-16.902;2024-01-30T10:40:27;32.83;;;5.95;;
61025;SDS011;46911;32.650;-16.902;2024-01-30T10:42:31;46.20;;;5.28;;
61025;SDS011;46911;32.650;-16.902;2024-01-30T10:45:22;42.00;;;6.93;;
61025;SDS011;46911;32.650;-16.902;2024-01-30T10:47:00;36.65;;;7.10;;
61025;SDS011;46911;32.650;-16.902;2024-01-30T10:49:09;25.45;;;6.05;;
61025;SDS011;46911;32.650;-16.902;2024-01-30T10:51:13;34.55;;;4.78;;
61025;SDS011;46911;32.650;-16.902;2024-01-30T10:53:15;26.45;;;4.40;;
61025;SDS011;46911;32.650;-16.902;2024-01-30T10:55:18;26.48;;;5.35;;
61025;SDS011;46911;32.650;-16.902;2024-01-30T10:57:21;30.83;;;6.95;;
61025;SDS011;46911;32.650;-16.902;2024-01-30T10:59:24;40.22;;;5.22;;
61025;SDS011;46911;32.650;-16.902;2024-01-30T11:01:29;30.83;;;6.18;;
61025;SDS011;46911;32.650;-16.902;2024-01-30T11:03:31;24.27;;;4.25;;
61025;SDS011;46911;32.650;-16.902;2024-01-30T11:05:40;28.15;;;5.25;;
61025;SDS011;46911;32.650;-16.902;2024-01-30T11:07:43;29.17;;;5.35;;
61025;SDS011;46911;32.650;-16.902;2024-01-30T11:09:50;24.23;;;5.20;;
61025;SDS011;46911;32.650;-16.902;2024-01-30T11:11:58;30.70;;;4.90;;
61025;SDS011;46911;32.650;-16.902;2024-01-30T11:14:05;27.50;;;3.40;;
61025;SDS011;46911;32.650;-16.902;2024-01-30T11:16:08;18.40;;;3.97;;
61025;SDS011;46911;32.650;-16.902;2024-01-30T11:18:12;19.95;;;3.88;;
61025;SDS011;46911;32.650;-16.902;2024-01-30T11:20:30;23.70;;;3.78;;
61025;SDS011;46911;32.650;-16.902;2024-01-30T11:22:36;24.17;;;4.32;;
61025;SDS011;46911;32.650;-16.902;2024-01-30T11:24:39;13.80;;;3.63;;
61025;SDS011;46911;32.650;-16.902;2024-01-30T11:26:43;19.02;;;4.45;;
61025;SDS011;46911;32.650;-16.902;2024-01-30T11:28:52;24.08;;;4.30;;
61025;SDS011;46911;32.650;-16.902;2024-01-30T11:31:02;17.95;;;3.15;;
61025;SDS011;46911;32.650;-16.902;2024-01-30T11:33:05;25.85;;;3.80;;
61025;SDS011;46911;32.650;-16.902;2024-01-30T11:35:15;17.83;;;3.22;;
61025;SDS011;46911;32.650;-16.902;2024-01-30T11:37:19;19.30;;;4.03;;
61025;SDS011;46911;32.650;-16.902;2024-01-30T11:39:25;15.73;;;3.25;;
61025;SDS011;46911;32.650;-16.902;2024-01-30T11:41:27;18.92;;;3.40;;
61025;SDS011;46911;32.650;-16.902;2024-01-30T11:43:33;17.83;;;3.92;;
61025;SDS011;46911;32.650;-16.902;2024-01-30T11:45:38;15.98;;;3.67;;
61025;SDS011;46911;32.650;-16.902;2024-01-30T11:47:39;23.40;;;3.80;;
61025;SDS011;46911;32.650;-16.902;2024-01-30T11:49:40;21.40;;;3.88;;
61025;SDS011;46911;32.650;-16.902;2024-01-30T11:51:46;17.80;;;3.60;;
61025;SDS011;46911;32.650;-16.902;2024-01-30T11:53:52;26.92;;;3.63;;